Linwood, Michigan
Current Conditions -  °F | °C
As of 4:53 PM on Tuesday 21 Oct 2014 (Local Time) from KMBS Reporting Station
Few Clouds Few Clouds  
Wind Chill: 50°   Ceiling: Unl
Heat Index: 50°   Visibility: 10mi
Dew Point: 35°   Wind: 16mph
Humidity: 57%   Direction: 40°NE
Pressure: 30.16"   Gusts: NA
Location:  43.74°N, 83.96°W
Report Text: KMBS 212053Z 04014KT 10SM FEW038 10/02 A3016 RMK AO2 RAE48 SLP217 P0000 60000 T01000017 53009
Loading
Personal Weather Stations






























Interactive Weather Map
Tropical Storm Tracking
New forecast layout! Learn more

10-Day Weather Forecast

Advertisements
Track Severe Weather on mobile